• Back
  •  
  • Position of Reservoir Gates
S.No.
No. of opened gates
Position of opening (In m)
Reporting Date
Reporting Time
Discharge in Cumecs
Discharge in Cusecs
Actual date and time of Gate opening
1
2
3
4
5
6
7
8
1 2 0.35 23/07/2021 8:00:00 AM 52.06 1838.5 23/07/2021
2 5 0.8 25/07/2021 8:00:00 AM 291.5 10294.32 24/07/2021
3 5 0.45 28/07/2021 8:00:00 AM 31.23 1102.89 27/07/2021
4 5 0.45 28/07/2021 8:00:00 AM 31.23 1102.89
5 1 0.45 28/07/2021 8:00:00 AM 31.23 1102.89 28/07/2021
6 1 0.45 29/07/2021 8:00:00 AM 31.23 1102.89 28/08/2021
7 1 0.45 30/07/2021 8:00:00 AM 31.23 1102.89 27/08/2021
8 1 0.45 31/07/2021 12:00:00 PM 31.23 1102.89 31/08/2021
9 1 0.45 01/08/2021 8:00:00 AM 31.23 1102.89 27/07/2021
10 3 0.65 02/08/2021 8:00:00 AM 135.3 4778.12 01/08/2021
11 3 0.6 03/08/2021 8:00:00 AM 156.1 5512.67 03/08/2021
12 0 0 03/08/2021 12:00:00 PM 0 0 03/08/2021 12 PM
13 2 0.45 09/08/2021 12:00:00 PM 62.47 2206.13 09/08/2021
14 3 0.6 09/08/2021 4:00:00 PM 124.9 4410.84
15 1 0.6 17/08/2021 8:00:00 PM 42.74 1509.36
16 1 0.6 18/08/2021 8:00:00 AM 42.74 1509.36 17/08/2021
17 1 0.6 19/08/2021 4:00:00 PM 41.65 1470.87
18 1 0.6 20/08/2021 8:00:00 AM 41.65 1470.87
19 1 0.6 20/08/2021 8:00:00 AM 41.65 1470.87 20/08/2021
20 1 0.3 20/08/2021 12:00:00 PM 20.82 735.26
21 1 0.45 21/08/2021 8:00:00 AM 32.17 1136.08
22 0 0 21/08/2021 12:00:00 PM 0 0 21/08/2021 12.00PM
23 1 0.3 24/08/2021 4:00:00 PM 21.59 762.45
24 1 0.3 25/08/2021 8:00:00 AM 51.59 1821.9 25/08/2021
25 0 0 25/08/2021 12:00:00 PM 0 0 25/08/2021 Gate Closed
26 1 0.3 10/09/2021 10:00:00 AM 21.56 761.39 10/09/2021
27 7 1.5 12/07/2019 8:30:00 AM 40 1412.6
28 7 1.5 13/07/2019 12:01:00 AM 40 1412.6
29 5 1.5 13/07/2019 8:30:00 AM 40 1412.6
30 5 1.5 14/07/2019 12:01:00 AM 40 1412.6
31 5 1.5 14/07/2019 8:00:00 AM 40 1412.6
32 5 1.5 15/07/2019 12:01:00 AM 40 1412.6
33 9 1.5 15/07/2019 8:40:00 AM 36 1271.34
34 7 1.5 16/07/2019 12:01:00 AM 36 1271.34
35 9 1.5 16/07/2019 8:00:00 AM 36 1271.34
36 9 1.5 17/07/2019 12:01:00 AM 36 1271.34
37 9 1.5 18/07/2019 12:01:00 AM 36 1271.34
38 7 1.5 19/07/2019 12:01:00 AM 20 706.3
39 7 1.5 20/07/2019 12:01:00 AM 20 706.3
40 7 1.5 25/07/2019 8:45:00 AM 10 353.15
41 7 1.5 26/07/2019 8:50:00 AM 10 353.15
42 7 1.5 27/07/2019 12:01:00 AM 10 353.15
43 0 0 27/07/2019 8:03:00 AM 0 0 all gates are closed
44 7 1.5 20/07/2019 8:30:00 AM 20 706.3
45 7 1.5 21/07/2019 12:01:00 AM 20 706.3
46 7 1.5 22/07/2019 12:01:00 AM 20 706.3
47 7 1.5 23/07/2019 8:36:00 AM 5 176.57
48 9 1.5 22/07/2019 8:35:00 AM 10 353.15
49 9 1.5 23/07/2019 12:01:00 AM 10 353.15
50 8 1.5 24/07/2019 12:01:00 AM 5 176.57
51 8 1.5 25/07/2019 12:01:00 AM 5 176.57
52 0 0 15/09/2019 9:00:00 AM 0 0 All gates are closed
53 0 0 21/09/2019 9:00:00 AM 0 0 All Gates are closed.
54 0 0 22/09/2019 10:00:00 AM 0 0 All Gates are closed
55 0 0 29/09/2019 9:00:00 AM 0 0 All Gates are closed.
Powered by © Water Resources Department (MP). All Rights Reserved.